METAR AND TAF INFORMATION
METAR FOR SKSP
ADDS - METARS form results

(2219 UTC 23 August 2019)
Data provider http://aviationweather.gov/metar/data/
 
Forecast for: SKSP (SAN ANDRES ISLAN, CO)
Text: TAF SKSP 231630Z 2318/2418 06012KT 9999 FEW018 TX31/2318Z TN27/2411Z
Forecast period: 1800 UTC 23 August 2019 to 1800 UTC 24 August 2019
Forecast type: FROM: standard forecast or significant change
Winds: from the ENE (60 degrees) at 14 MPH (12 knots; 6.2 m/s)
Visibility: 6 or more miles 10+ km)
Ceiling: at least 12,000 feet AGL
Clouds: few clouds at 1800 feet AGL
Weather: no significant weather forecast for this period

 AIRPORT MAP

 RUNWAY INFORMATION
Runway 06 Runway length 7808 ft Runway width 148 ft
Runway elevation 8 ft Runway displaced threshold 0 ft Runway heading 59
Runway 24 Runway length 7808 ft Runway width 148 ft
Runway elevation 8 ft Runway displaced threshold 0 ft Runway heading 239

 AIRPORT FREQUENCIES
Type APP Name SAN ANDRES Frequency 119.3 MHZ
Type ATIS Name ATIS Frequency 113.3 MHZ
Type CNTR Name PANAMA CNT Frequency 120.3 MHZ
Type RDO Name SAN ANDRES Frequency 653.2 MHZ
Type TWR Name TWR Frequency 118.1 MHZ

 AIRPORT NEAR NAVIGATION AIDS
Type VOR-DME Name San Andres Frequency 113300 KHZ
Type NDB Name San Andres Frequency 387 KHZ